Milam, Texas
Current Conditions -  °F | °C
As of 2:56 PM on Tuesday 27 Jan 2015 (Local Time) from KAQV Reporting Station
Clear Clear  
Wind Chill: 77°   Ceiling: Unl
Heat Index: 77°   Visibility: 10mi
Dew Point: 33°   Wind: 6mph
Humidity: 20%   Direction: 350°N
Pressure: 30.09"   Gusts: NA
Location:  31.43°N, 93.85°W
Report Text: KAQV 272056Z AUTO 35005KT 10SM CLR 25/01 A3009 RMK AO2 SLP187 T02500006 56014
Loading
Personal Weather Stations






























Interactive Weather Map New forecast layout! Learn more

10-Day Weather Forecast

Advertisements
Track Severe Weather on mobile